Time;durP1;ratioP1;P1;durP2;ratioP2;P2;SDS_P1;SDS_P2;PMS_P1;PMS_P2;Temp;Humidity;BMP_temperature;BMP_pressure;BME280_temperature;BME280_humidity;BME280_pressure;Samples;Min_cycle;Max_cycle;Signal;HPM_P1;HPM_P2
2023/02/21 02:14:25;;;;;;;;;42.33;39.67;;;;;7.01;100.00;101469.03;4958624;28;45489;-75
2023/02/21 02:17:25;;;;;;;;;52.33;41.67;;;;;6.93;100.00;101466.09;4956825;28;45402;-75
2023/02/21 02:20:00;;;;;;;;;47.33;41.33;;;;;6.81;100.00;101460.28;4941041;28;45468;-74
2023/02/21 02:22:50;;;;;;;;;45.00;38.00;;;;;6.79;100.00;101461.97;4956110;28;45578;-75
2023/02/21 02:25:22;;;;;;;;;46.50;39.50;;;;;6.76;100.00;101462.72;4955211;28;45773;-75
2023/02/21 02:28:15;;;;;;;;;48.50;41.75;;;;;6.74;100.00;101455.59;4957269;28;45419;-76
2023/02/21 02:30:58;;;;;;;;;41.67;37.67;;;;;6.79;100.00;101461.97;4957254;28;45485;-75
2023/02/21 02:33:36;;;;;;;;;44.00;38.67;;;;;6.80;100.00;101453.19;4957238;28;45848;-75
2023/02/21 02:36:38;;;;;;;;;42.33;39.00;;;;;6.80;100.00;101453.19;4956290;28;45534;-75
2023/02/21 02:39:15;;;;;;;;;44.75;40.00;;;;;6.74;100.00;101450.28;4971985;28;45567;-75
2023/02/21 02:42:02;;;;;;;;;41.33;38.00;;;;;6.79;100.00;101443.47;4957416;28;45488;-75
2023/02/21 02:44:38;;;;;;;;;47.25;40.75;;;;;6.77;100.00;101434.56;4958639;28;45827;-75
2023/02/21 02:47:07;;;;;;;;;44.75;40.25;;;;;6.80;100.00;101442.63;4956636;28;45653;-75
2023/02/21 02:49:36;;;;;;;;;42.00;39.00;;;;;6.74;100.00;101439.72;4955588;28;45470;-75
2023/02/21 02:52:05;;;;;;;;;37.67;35.67;;;;;6.73;100.00;101435.28;4975455;28;45533;-75
2023/02/21 02:54:30;;;;;;;;;42.25;40.00;;;;;6.67;100.00;101430.66;4997759;28;45372;-75
2023/02/21 02:56:57;;;;;;;;;49.00;42.00;;;;;6.68;100.00;101431.53;4994345;28;46567;-75
2023/02/21 02:59:25;;;;;;;;;41.00;38.00;;;;;6.72;100.00;101438.75;4996546;28;45415;-75
2023/02/21 03:02:12;;;;;;;;;45.00;38.00;;;;;6.74;100.00;101430.03;4994316;28;45485;-75
2023/02/21 03:05:00;;;;;;;;;49.67;38.00;;;;;6.70;100.00;101425.47;4994612;28;45564;-75
2023/02/21 03:08:01;;;;;;;;;35.67;29.00;;;;;6.72;100.00;101426.44;4994403;28;46457;-75
2023/02/21 03:10:34;;;;;;;;;38.00;31.67;;;;;6.63;100.00;101420.78;4990158;28;45642;-75
2023/02/21 03:13:20;;;;;;;;;27.33;24.33;;;;;6.63;100.00;101422.53;4995953;28;45436;-76
2023/02/21 03:16:02;;;;;;;;;39.00;33.67;;;;;6.59;100.00;101427.69;4996456;28;45468;-75
2023/02/21 03:18:30;;;;;;;;;39.00;36.33;;;;;6.53;100.00;101408.94;4996137;28;45877;-75
2023/02/21 03:21:00;;;;;;;;;39.67;37.67;;;;;6.49;100.00;101414.94;4980743;28;45634;-75
2023/02/21 03:23:29;;;;;;;;;40.67;36.67;;;;;6.45;100.00;101418.28;4980289;28;45642;-75
2023/02/21 03:26:00;;;;;;;;;37.00;35.67;;;;;6.41;100.00;101416.34;4963360;28;45473;-75
2023/02/21 03:28:28;;;;;;;;;37.33;36.00;;;;;6.39;100.00;101413.66;4980613;28;45492;-75
2023/02/21 03:30:57;;;;;;;;;39.33;37.00;;;;;6.35;100.00;101409.06;4980590;28;45577;-75
2023/02/21 03:33:23;;;;;;;;;39.00;38.00;;;;;6.27;100.00;101407.84;4980871;28;45746;-76
2023/02/21 03:35:51;;;;;;;;;34.00;31.00;;;;;6.30;100.00;101407.06;4980073;28;45601;-75
2023/02/21 03:38:16;;;;;;;;;37.67;35.67;;;;;6.21;100.00;101391.75;4980748;28;45335;-75
2023/02/21 03:40:42;;;;;;;;;37.67;33.33;;;;;6.23;100.00;101405.03;4981005;28;45464;-75
2023/02/21 03:43:15;;;;;;;;;39.00;33.67;;;;;6.17;100.00;101403.91;4980348;28;45748;-75
2023/02/21 03:45:40;;;;;;;;;36.67;36.33;;;;;6.15;100.00;101407.34;4981139;28;45297;-75
2023/02/21 03:48:05;;;;;;;;;33.67;31.33;;;;;6.18;100.00;101402.16;4980643;28;46151;-75
2023/02/21 03:50:31;;;;;;;;;40.67;36.67;;;;;6.19;100.00;101402.22;4961804;28;45330;-75
2023/02/21 03:52:58;;;;;;;;;38.00;34.33;;;;;6.23;100.00;101399.75;4979812;28;45536;-75
2023/02/21 03:55:23;;;;;;;;;42.33;39.33;;;;;6.16;100.00;101398.56;4962457;28;45531;-75
2023/02/21 03:57:48;;;;;;;;;44.67;40.67;;;;;6.17;100.00;101392.44;4962662;28;47476;-75
2023/02/21 04:00:14;;;;;;;;;42.33;38.33;;;;;6.18;100.00;101400.44;4979318;28;45457;-75
2023/02/21 04:02:40;;;;;;;;;40.33;37.33;;;;;6.13;100.00;101394.06;4981336;28;45776;-75
2023/02/21 04:05:10;;;;;;;;;46.33;40.67;;;;;6.18;100.00;101395.16;4979992;28;45440;-76
2023/02/21 04:07:35;;;;;;;;;47.67;40.00;;;;;6.16;100.00;101385.34;4981120;28;45305;-75
2023/02/21 04:10:01;;;;;;;;;54.75;46.75;;;;;6.19;100.00;101383.75;4980052;28;45467;-75
2023/02/21 04:12:26;;;;;;;;;45.00;38.33;;;;;6.19;100.00;101382.84;4962985;28;45425;-75
2023/02/21 04:14:55;;;;;;;;;52.00;43.75;;;;;6.18;100.00;101374.03;4980895;28;45733;-75
2023/02/21 04:17:21;;;;;;;;;62.75;47.25;;;;;6.17;100.00;101380.13;4980908;28;45777;-75
2023/02/21 04:19:47;;;;;;;;;56.75;46.50;;;;;6.15;100.00;101380.91;4980782;28;46002;-75
2023/02/21 04:22:12;;;;;;;;;49.75;41.25;;;;;6.17;100.00;101384.53;4981028;28;45396;-75
2023/02/21 04:24:38;;;;;;;;;58.25;47.25;;;;;6.11;100.00;101385.16;4963179;28;45365;-75
2023/02/21 04:27:03;;;;;;;;;45.50;42.00;;;;;6.13;100.00;101394.06;4976992;28;47707;-75
2023/02/21 04:29:30;;;;;;;;;58.75;49.50;;;;;6.11;100.00;101379.88;4978585;28;45574;-75
2023/02/21 04:31:56;;;;;;;;;62.00;50.00;;;;;6.06;100.00;101386.72;4976987;28;45416;-75
2023/02/21 04:34:22;;;;;;;;;61.75;50.00;;;;;6.02;100.00;101390.06;4976769;28;45400;-75
2023/02/21 04:36:54;;;;;;;;;62.50;50.75;;;;;6.08;100.00;101379.78;4979293;28;46657;-75
2023/02/21 04:39:22;;;;;;;;;59.75;50.00;;;;;6.07;100.00;101388.50;4984098;28;45404;-75
2023/02/21 04:41:49;;;;;;;;;64.25;53.50;;;;;6.01;100.00;101390.88;4978067;28;45496;-75
2023/02/21 04:44:17;;;;;;;;;68.25;57.00;;;;;5.95;100.00;101394.16;4961120;28;45463;-75
2023/02/21 04:46:42;;;;;;;;;74.75;59.75;;;;;5.93;100.00;101385.25;4961635;28;46710;-75
2023/02/21 04:49:10;;;;;;;;;70.25;57.25;;;;;5.96;100.00;101381.88;4962004;28;45500;-75
2023/02/21 04:51:36;;;;;;;;;69.50;57.25;;;;;5.97;100.00;101392.50;4961549;28;45376;-75
2023/02/21 04:54:02;;;;;;;;;71.50;58.25;;;;;5.90;100.00;101385.13;4961301;28;45368;-75
2023/02/21 04:56:28;;;;;;;;;69.75;55.75;;;;;5.95;100.00;101382.72;4980076;28;45199;-75
2023/02/21 04:58:54;;;;;;;;;74.25;58.00;;;;;5.91;100.00;101386.03;4979546;28;45510;-75
2023/02/21 05:01:20;;;;;;;;;59.50;48.75;;;;;5.89;100.00;101390.31;4963781;28;45431;-75
2023/02/21 05:03:46;;;;;;;;;69.25;56.50;;;;;5.90;100.00;101395.69;4982318;28;45452;-75
2023/02/21 05:06:22;;;;;;;;;68.75;56.00;;;;;5.91;100.00;101397.47;4981428;28;45428;-76
2023/02/21 05:08:47;;;;;;;;;66.50;56.00;;;;;5.81;100.00;101380.31;4982542;28;45506;-74
2023/02/21 05:11:13;;;;;;;;;63.75;51.00;;;;;5.82;100.00;101384.78;4979665;28;45450;-74
2023/02/21 05:13:39;;;;;;;;;41.50;38.25;;;;;5.82;100.00;101387.44;4981600;28;45405;-74
2023/02/21 05:16:05;;;;;;;;;54.00;45.75;;;;;5.82;100.00;101378.63;4964531;28;47495;-75
2023/02/21 05:18:31;;;;;;;;;52.25;42.00;;;;;5.79;100.00;101382.00;4980708;28;45481;-76
2023/02/21 05:20:56;;;;;;;;;50.75;45.75;;;;;5.77;100.00;101391.59;4983486;28;45443;-75
2023/02/21 05:23:34;;;;;;;;;51.00;44.00;;;;;5.72;100.00;101376.41;4983429;28;45379;-76
2023/02/21 05:26:11;;;;;;;;;51.00;43.00;;;;;5.80;100.00;101382.91;4983504;28;45515;-75
2023/02/21 05:28:40;;;;;;;;;48.50;44.25;;;;;5.72;100.00;101379.94;4984030;28;45435;-76
2023/02/21 05:31:07;;;;;;;;;55.00;45.25;;;;;5.67;100.00;101375.28;4983056;28;45377;-76
2023/02/21 05:33:33;;;;;;;;;37.00;31.67;;;;;5.65;100.00;101375.22;4982191;28;45440;-75
2023/02/21 05:35:58;;;;;;;;;50.00;39.75;;;;;5.63;100.00;101371.59;4979085;28;48006;-75
2023/02/21 05:38:26;;;;;;;;;45.25;41.25;;;;;5.64;100.00;101364.63;4979723;28;46567;-75
2023/02/21 05:40:52;;;;;;;;;42.50;38.50;;;;;5.58;100.00;101367.88;4981268;28;45439;-74
2023/02/21 05:43:18;;;;;;;;;44.25;39.00;;;;;5.54;100.00;101352.75;4981282;28;45403;-74
2023/02/21 05:45:44;;;;;;;;;50.25;44.50;;;;;5.52;100.00;101351.78;4979614;28;47435;-75
2023/02/21 05:48:09;;;;;;;;;49.75;43.75;;;;;5.51;100.00;101356.13;4978692;28;45489;-74
2023/02/21 05:50:35;;;;;;;;;53.50;45.00;;;;;5.50;100.00;101351.69;4979974;28;45392;-75
2023/02/21 05:53:01;;;;;;;;;50.00;43.00;;;;;5.50;100.00;101345.53;4979844;28;45555;-74
2023/02/21 05:55:27;;;;;;;;;39.33;38.67;;;;;5.50;100.00;101340.25;4980089;28;46823;-75
2023/02/21 05:57:53;;;;;;;;;34.67;34.33;;;;;5.52;100.00;101343.88;4980101;28;44889;-75
2023/02/21 06:00:22;;;;;;;;;41.33;37.67;;;;;5.57;100.00;101340.56;4978882;28;45424;-74
2023/02/21 06:02:49;;;;;;;;;45.33;40.00;;;;;5.54;100.00;101331.66;4977218;28;45505;-75
2023/02/21 06:05:15;;;;;;;;;44.00;40.00;;;;;5.57;100.00;101337.03;4979345;28;45928;-75
2023/02/21 06:07:42;;;;;;;;;41.00;37.00;;;;;5.64;100.00;101336.47;4977718;28;46022;-75
2023/02/21 06:10:08;;;;;;;;;34.67;34.67;;;;;5.59;100.00;101336.28;4977077;28;45682;-76
2023/02/21 06:12:33;;;;;;;;;40.67;38.67;;;;;5.63;100.00;101342.59;4979608;28;45391;-76
2023/02/21 06:14:59;;;;;;;;;47.00;38.33;;;;;5.68;100.00;101341.06;4975967;28;47041;-76
2023/02/21 06:17:24;;;;;;;;;52.67;43.67;;;;;5.73;100.00;101338.59;4976222;28;45585;-75
2023/02/21 06:19:55;;;;;;;;;50.00;40.33;;;;;5.71;100.00;101324.44;4974445;28;45397;-74
2023/02/21 06:22:20;;;;;;;;;43.33;38.00;;;;;5.81;100.00;101335.44;4946223;28;45766;-72
2023/02/21 06:24:46;;;;;;;;;39.67;36.00;;;;;5.86;100.00;101329.47;4958318;28;47092;-74
2023/02/21 06:27:11;;;;;;;;;35.67;31.33;;;;;5.88;100.00;101331.34;4953243;28;45301;-74
2023/02/21 06:29:37;;;;;;;;;41.00;39.00;;;;;5.90;100.00;101329.69;4973462;28;45373;-75
2023/02/21 06:32:04;;;;;;;;;35.67;32.33;;;;;5.93;100.00;101318.34;4968710;28;45384;-74
2023/02/21 06:34:29;;;;;;;;;49.33;42.33;;;;;5.89;100.00;101319.06;4974909;28;46789;-75
2023/02/21 06:36:54;;;;;;;;;48.33;43.33;;;;;5.90;100.00;101310.28;4995310;28;45538;-75
2023/02/21 06:39:22;;;;;;;;;48.00;42.00;;;;;5.84;100.00;101295.13;4995311;28;45857;-77
2023/02/21 06:41:49;;;;;;;;;42.00;38.33;;;;;5.85;100.00;101307.47;4993442;28;44823;-80
2023/02/21 06:44:15;;;;;;;;;45.75;41.50;;;;;5.79;100.00;101299.28;5010914;28;47518;-80
2023/02/21 06:46:41;;;;;;;;;49.00;40.67;;;;;5.70;100.00;101305.09;5013905;28;45400;-80
2023/02/21 06:49:07;;;;;;;;;60.50;46.75;;;;;5.70;100.00;101299.81;4990324;28;45473;-82
2023/02/21 06:51:40;;;;;;;;;58.25;46.50;;;;;5.74;100.00;101303.47;4996686;28;44902;-82
2023/02/21 06:54:09;;;;;;;;;58.00;46.50;;;;;5.74;100.00;101296.47;5012390;28;45373;-81
2023/02/21 06:56:36;;;;;;;;;57.50;46.75;;;;;5.78;100.00;101300.13;5013022;28;44836;-81
2023/02/21 06:59:02;;;;;;;;;57.00;45.50;;;;;5.74;100.00;101293.81;4997184;28;44877;-81
2023/02/21 07:01:28;;;;;;;;;59.75;50.25;;;;;5.81;100.00;101285.31;5005829;28;46155;-82
2023/02/21 07:03:56;;;;;;;;;60.25;50.50;;;;;5.89;100.00;101297.94;5015311;28;45273;-81
2023/02/21 07:06:21;;;;;;;;;57.50;48.75;;;;;5.75;100.00;101263.94;4998427;28;45358;-82
2023/02/21 07:08:48;;;;;;;;;60.25;48.75;;;;;5.98;100.00;101293.09;5015147;28;45335;-81
2023/02/21 07:11:15;;;;;;;;;52.75;46.00;;;;;5.97;100.00;101291.28;5013027;28;45472;-82
2023/02/21 07:13:40;;;;;;;;;58.50;46.00;;;;;5.98;100.00;101293.09;4999307;28;46922;-82
2023/02/21 07:16:06;;;;;;;;;59.25;48.50;;;;;5.94;100.00;101283.22;5013322;28;45557;-82
2023/02/21 07:18:32;;;;;;;;;59.50;47.00;;;;;6.01;100.00;101290.56;5007028;28;45463;-81
2023/02/21 07:20:59;;;;;;;;;56.75;47.00;;;;;6.09;100.00;101298.81;4995746;28;45478;-82
2023/02/21 07:23:25;;;;;;;;;60.50;47.75;;;;;6.10;100.00;101292.66;5010044;28;45242;-80
2023/02/21 07:25:50;;;;;;;;;55.75;45.25;;;;;6.19;100.00;101296.59;5013290;28;44857;-82
2023/02/21 07:28:17;;;;;;;;;55.75;46.50;;;;;6.25;100.00;101281.84;4995723;28;44814;-80
2023/02/21 07:30:42;;;;;;;;;61.00;51.00;;;;;6.36;100.00;101292.00;5012990;28;45408;-81
2023/02/21 07:33:10;;;;;;;;;66.25;53.25;;;;;6.44;100.00;101283.47;5010941;28;45552;-80
2023/02/21 07:35:36;;;;;;;;;65.00;51.50;;;;;6.49;100.00;101287.22;5004240;28;45099;-81
2023/02/21 07:38:02;;;;;;;;;64.75;51.50;;;;;6.55;100.00;101288.34;5005819;28;46303;-81
2023/02/21 07:40:27;;;;;;;;;66.50;53.25;;;;;6.57;100.00;101275.19;4996359;28;45878;-79
2023/02/21 07:42:53;;;;;;;;;67.00;54.00;;;;;6.66;100.00;101285.22;4996300;28;46532;-81
2023/02/21 07:45:18;;;;;;;;;67.25;54.75;;;;;6.68;100.00;101288.81;5005928;28;45415;-82
2023/02/21 07:47:45;;;;;;;;;59.25;49.25;;;;;6.70;100.00;101281.84;5010501;28;45664;-81
2023/02/21 07:50:11;;;;;;;;;68.75;56.00;;;;;6.73;100.00;101288.16;5003288;28;45312;-83
2023/02/21 07:52:37;;;;;;;;;73.25;57.00;;;;;6.78;100.00;101280.38;4996919;28;48540;-81
2023/02/21 07:55:03;;;;;;;;;68.00;56.00;;;;;6.84;100.00;101275.34;5008341;28;45363;-82
2023/02/21 07:57:31;;;;;;;;;68.00;56.00;;;;;6.95;100.00;101283.69;5011553;28;44922;-82
2023/02/21 07:59:56;;;;;;;;;73.50;58.75;;;;;6.93;100.00;101283.63;4994579;28;45502;-82
2023/02/21 08:02:22;;;;;;;;;71.25;57.00;;;;;7.02;100.00;101285.69;4993700;28;47319;-82
2023/02/21 08:04:52;;;;;;;;;67.50;55.50;;;;;7.15;100.00;101287.97;5015635;28;44794;-82
2023/02/21 08:07:18;;;;;;;;;74.75;58.50;;;;;7.17;100.00;101280.06;4994926;28;44867;-82
2023/02/21 08:09:43;;;;;;;;;75.00;61.25;;;;;7.20;100.00;101274.91;4998169;28;45450;-82
2023/02/21 08:12:12;;;;;;;;;73.50;58.00;;;;;7.32;100.00;101270.03;5001738;28;46841;-82
2023/02/21 08:14:40;;;;;;;;;68.50;57.25;;;;;7.41;100.00;101280.97;5010596;28;44841;-82
2023/02/21 08:17:07;;;;;;;;;74.75;61.50;;;;;7.43;100.00;101280.13;5011841;28;44866;-84
2023/02/21 08:19:33;;;;;;;;;76.00;60.50;;;;;7.46;100.00;101273.19;4997478;28;45446;-82
2023/02/21 08:28:44;;;;;;;;;74.75;60.75;;;;;7.61;100.00;101272.81;5001624;28;45338;-82
2023/02/21 08:31:09;;;;;;;;;79.75;61.50;;;;;7.63;100.00;101273.75;5017510;28;44826;-83
2023/02/21 08:33:35;;;;;;;;;76.75;60.50;;;;;7.69;100.00;101271.31;4993658;28;47510;-84
2023/02/21 08:36:01;;;;;;;;;80.00;63.50;;;;;7.73;100.00;101270.59;4966603;28;45298;-82
2023/02/21 08:38:26;;;;;;;;;71.50;57.50;;;;;7.78;100.00;101274.28;4965029;28;44735;-84
2023/02/21 08:40:53;;;;;;;;;80.75;63.00;;;;;7.82;100.00;101262.97;4986647;28;44790;-83
2023/02/21 08:43:18;;;;;;;;;73.00;60.00;;;;;7.91;100.00;101274.72;4988364;28;45548;-83
2023/02/21 08:45:44;;;;;;;;;71.75;57.25;;;;;7.98;100.00;101279.38;4963427;28;45503;-83
2023/02/21 08:48:11;;;;;;;;;78.75;62.25;;;;;7.95;100.00;101258.06;4964101;28;45575;-82
2023/02/21 08:50:36;;;;;;;;;77.00;61.50;;;;;7.88;100.00;101234.91;4964377;28;45415;-82
2023/02/21 08:53:02;;;;;;;;;78.50;61.25;;;;;8.05;100.00;101252.22;4979256;28;45437;-83
2023/02/21 08:55:28;;;;;;;;;77.50;61.25;;;;;8.18;100.00;101262.38;4955716;28;45404;-83
2023/02/21 08:57:54;;;;;;;;;76.25;59.00;;;;;8.14;100.00;101257.84;4960752;28;45556;-83
2023/02/21 09:00:42;;;;;;;;;77.50;61.50;;;;;8.36;100.00;101274.38;4950308;28;44851;-83
2023/02/21 09:03:50;;;;;;;;;72.50;56.25;;;;;8.45;100.00;101273.84;4965280;28;45707;-84
2023/02/21 09:06:16;;;;;;;;;70.75;55.00;;;;;8.43;100.00;101263.19;4975061;28;45361;-82
2023/02/21 09:08:42;;;;;;;;;74.00;59.00;;;;;8.27;100.00;101234.38;4974051;28;44862;-83
2023/02/21 09:11:15;;;;;;;;;77.00;62.25;;;;;8.61;100.00;101281.41;4957938;28;45492;-83
2023/02/21 09:13:47;;;;;;;;;75.75;60.00;;;;;8.65;100.00;101262.09;4973522;28;45605;-83
2023/02/21 09:19:38;;;;;;;;;76.00;60.00;;;;;8.78;100.00;101258.94;4978099;28;44761;-82
2023/02/21 09:22:08;;;;;;;;;75.50;59.50;;;;;8.87;100.00;101262.75;4942944;28;44991;-82
2023/02/21 09:24:33;;;;;;;;;77.25;60.25;;;;;8.86;100.00;101261.81;4958678;28;45311;-82
2023/02/21 09:27:02;;;;;;;;;79.00;60.75;;;;;8.95;100.00;101262.09;4959667;28;44786;-83
2023/02/21 09:29:33;;;;;;;;;72.75;56.00;;;;;9.01;100.00;101261.38;4957871;28;46221;-83
2023/02/21 09:32:32;;;;;;;;;82.75;64.25;;;;;8.94;100.00;101244.38;4957113;28;45127;-82
2023/02/21 09:35:52;;;;;;;;;76.00;60.25;;;;;9.20;100.00;101261.03;4998301;28;45196;-82
2023/02/21 09:38:43;;;;;;;;;78.25;62.25;;;;;9.12;100.00;101266.97;4995059;28;44914;-81
2023/02/21 09:41:16;;;;;;;;;85.50;67.50;;;;;9.07;100.00;101276.56;4983478;28;45495;-82
2023/02/21 09:43:56;;;;;;;;;82.00;64.00;;;;;8.98;100.00;101259.53;4979090;28;45943;-83
2023/02/21 09:46:40;;;;;;;;;84.75;70.50;;;;;9.05;100.00;101265.91;4988304;28;46302;-83
2023/02/21 09:49:22;;;;;;;;;84.25;67.25;;;;;9.16;100.00;101263.56;4988375;28;45395;-82
2023/02/21 09:51:53;;;;;;;;;87.50;70.00;;;;;9.18;100.00;101245.94;4974466;28;45627;-81
2023/02/21 09:54:42;;;;;;;;;91.25;71.25;;;;;9.29;100.00;101239.19;4974909;28;45805;-83
2023/02/21 09:57:45;;;;;;;;;88.75;75.00;;;;;9.29;100.00;101228.56;5002387;28;46713;-83
2023/02/21 10:00:35;;;;;;;;;88.50;73.25;;;;;9.54;100.00;101261.06;4972681;28;45319;-83
2023/02/21 10:03:25;;;;;;;;;89.25;77.00;;;;;9.56;100.00;101276.16;4963539;28;45377;-83
2023/02/21 10:06:33;;;;;;;;;83.75;67.50;;;;;9.51;100.00;101263.63;4991140;28;44954;-82
2023/02/21 10:09:50;;;;;;;;;;;;;;;;;;;;;
2023/02/21 10:12:55;;;;;;;;;;;;;;;;;;;;;
2023/02/21 10:16:00;;;;;;;;;86.50;71.00;;;;;9.49;100.00;101263.56;4985423;28;67885;-84
2023/02/21 10:18:57;;;;;;;;;;;;;;;;;;;;;
2023/02/21 10:22:10;;;;;;;;;88.50;73.25;;;;;9.69;100.00;101256.13;4997955;28;45535;-81
2023/02/21 10:30:53;;;;;;;;;79.50;61.00;;;;;9.78;100.00;101247.53;5312130;22;47126;-83
2023/02/21 10:33:19;;;;;;;;;89.25;72.50;;;;;9.66;100.00;101229.50;5048314;28;47790;-84
2023/02/21 10:36:19;;;;;;;;;87.25;74.75;;;;;9.98;100.00;101245.38;5040907;28;45150;-82
2023/02/21 10:42:48;;;;;;;;;89.75;76.75;;;;;10.22;100.00;101242.41;4945845;28;45645;-81
2023/02/21 10:45:26;;;;;;;;;83.50;71.50;;;;;10.02;100.00;101200.31;4951036;28;46090;-83
2023/02/21 10:48:10;;;;;;;;;90.25;77.25;;;;;10.40;100.00;101231.31;4951425;28;45451;-83
2023/02/21 10:51:27;;;;;;;;;84.25;67.00;;;;;10.55;100.00;101226.34;4931880;28;44971;-82
2023/02/21 10:54:28;;;;;;;;;85.50;74.25;;;;;10.44;100.00;101172.00;4947895;28;45502;-83
2023/02/21 10:57:35;;;;;;;;;87.50;72.50;;;;;10.88;100.00;101213.72;4958190;28;45558;-82
2023/02/21 11:03:09;;;;;;;;;81.75;67.25;;;;;10.90;100.00;101180.06;5008043;28;45471;-83
2023/02/21 11:05:46;;;;;;;;;88.25;74.50;;;;;11.07;100.00;101186.63;4993340;28;45591;-83
2023/02/21 11:08:36;;;;;;;;;83.75;71.00;;;;;11.34;100.00;101223.50;4991902;28;46404;-83
2023/02/21 11:12:04;;;;;;;;;85.50;75.25;;;;;11.49;100.00;101214.00;4983580;28;44941;-82
2023/02/21 11:14:34;;;;;;;;;85.75;69.75;;;;;11.55;100.00;101182.13;4951199;28;45318;-83
2023/02/21 11:17:15;;;;;;;;;91.00;72.75;;;;;11.66;100.00;101155.69;4953354;28;44918;-82
2023/02/21 11:20:06;;;;;;;;;86.00;73.00;;;;;12.07;100.00;101198.09;4986702;28;45521;-84
2023/02/21 11:23:08;;;;;;;;;86.00;69.50;;;;;12.24;100.00;101195.69;4983708;28;44959;-83
2023/02/21 11:26:14;;;;;;;;;;;;;;;;;;;;;
2023/02/21 11:32:04;;;;;;;;;84.25;69.25;;;;;12.65;100.00;101177.59;5197256;22;45953;-83
2023/02/21 11:34:30;;;;;;;;;91.50;76.50;;;;;12.56;100.00;101153.44;5033344;28;45268;-82
2023/02/21 11:37:05;;;;;;;;;87.50;71.25;;;;;12.78;100.00;101162.59;5032557;28;45364;-84
2023/02/21 11:39:52;;;;;;;;;90.25;74.75;;;;;12.79;100.00;101140.38;5040412;28;44879;-83
2023/02/21 11:42:31;;;;;;;;;83.00;70.75;;;;;12.84;100.00;101129.75;5037888;28;47789;-83
2023/02/21 11:45:33;;;;;;;;;85.25;69.25;;;;;13.13;100.00;101148.78;5032453;28;45838;-83
2023/02/21 11:48:10;;;;;;;;;84.75;71.25;;;;;13.01;100.00;101102.38;5036661;28;44861;-83
2023/02/21 11:51:27;;;;;;;;;84.75;71.25;;;;;13.31;100.00;101122.25;5039436;28;44804;-82
2023/02/21 11:54:33;;;;;;;;;85.75;74.25;;;;;13.56;100.00;101122.47;5040636;28;46575;-83
2023/02/21 11:57:43;;;;;;;;;83.25;74.25;;;;;13.68;100.00;101114.53;5032413;28;45419;-84
2023/02/21 12:01:17;;;;;;;;;84.25;69.25;;;;;13.77;100.00;101113.69;4963296;28;44915;-83
2023/02/21 12:03:45;;;;;;;;;78.50;65.25;;;;;13.84;100.00;101101.28;4887532;29;44980;-84
2023/02/21 12:06:51;;;;;;;;;88.00;74.25;;;;;13.94;100.00;101095.13;4897216;29;45587;-82
2023/02/21 12:10:13;;;;;;;;;;;;;;;;;;;;;
2023/02/21 12:12:52;;;;;;;;;88.25;76.50;;;;;14.01;100.00;101057.69;4885064;29;68045;-82
2023/02/21 12:15:32;;;;;;;;;83.00;72.75;;;;;13.98;100.00;101046.13;4877735;29;45193;-83
2023/02/21 12:18:34;;;;;;;;;84.50;70.25;;;;;14.31;100.00;101073.88;4929814;28;45535;-82
2023/02/21 12:21:42;;;;;;;;;84.25;70.00;;;;;14.38;100.00;101078.34;4933703;28;45429;-82
2023/02/21 12:24:33;;;;;;;;;81.25;67.25;;;;;14.50;100.00;101065.06;4940740;28;45426;-83
2023/02/21 12:27:26;;;;;;;;;83.25;73.50;;;;;14.55;100.00;101057.03;4935821;28;44995;-83
2023/02/21 12:30:22;;;;;;;;;82.75;63.00;;;;;14.48;100.00;101042.75;4958221;28;45181;-84
2023/02/21 12:32:54;;;;;;;;;87.75;75.00;;;;;14.49;100.00;101023.09;5009216;28;45443;-84
2023/02/21 12:36:05;;;;;;;;;78.75;65.50;;;;;14.72;100.00;101041.91;5012481;28;45570;-82
2023/02/21 12:39:21;;;;;;;;;86.75;75.00;;;;;14.79;100.00;101037.47;4996294;28;45810;-83
2023/02/21 12:42:26;;;;;;;;;88.25;74.50;;;;;14.86;100.00;101028.56;5001494;28;45497;-82
2023/02/21 12:45:05;;;;;;;;;84.75;71.00;;;;;14.65;100.00;100986.59;5013742;28;45350;-81
2023/02/21 12:47:58;;;;;;;;;84.50;76.00;;;;;14.57;100.00;100962.50;4984638;28;45825;-81
2023/02/21 12:50:34;;;;;;;;;86.75;73.75;;;;;14.78;100.00;101003.56;4987588;28;44970;-81
2023/02/21 12:53:23;;;;;;;;;82.00;71.75;;;;;14.74;100.00;100991.94;5012524;28;47319;-82
2023/02/21 12:56:10;;;;;;;;;87.75;75.50;;;;;14.80;100.00;101002.69;4994936;28;44858;-82
2023/02/21 12:59:22;;;;;;;;;84.75;75.00;;;;;14.86;100.00;101009.81;4991048;28;44806;-81
2023/02/21 13:02:26;;;;;;;;;79.50;67.25;;;;;14.90;100.00;100982.13;4988251;28;45245;-83
2023/02/21 13:04:56;;;;;;;;;80.25;63.50;;;;;14.82;100.00;100975.88;5016317;28;46771;-83
2023/02/21 13:11:23;;;;;;;;;75.75;60.00;;;;;14.99;100.00;100967.88;5022065;28;44736;-83
2023/02/21 13:13:49;;;;;;;;;77.25;60.75;;;;;14.76;100.00;100949.13;4997369;28;45322;-82
2023/02/21 13:16:48;;;;;;;;;;;;;;;;;;;;;
2023/02/21 13:19:30;;;;;;;;;77.75;63.75;;;;;14.73;100.00;100935.75;5000121;28;72184;-83
2023/02/21 13:22:51;;;;;;;;;72.00;56.50;;;;;14.96;100.00;100959.81;5022754;28;45434;-83
2023/02/21 13:25:33;;;;;;;;;74.00;59.00;;;;;14.80;100.00;100937.50;4975011;28;45610;-85
2023/02/21 13:28:23;;;;;;;;;71.00;55.25;;;;;14.75;100.00;100915.22;5010660;28;45491;-84
2023/02/21 13:37:21;;;;;;;;;70.50;56.00;;;;;14.94;100.00;100908.03;4967174;28;45376;-82
2023/02/21 13:40:07;;;;;;;;;70.50;54.75;;;;;15.02;100.00;100906.25;4970540;28;45484;-82
2023/02/21 13:43:03;;;;;;;;;63.25;52.25;;;;;15.24;100.00;100922.28;4968374;28;45388;-82
2023/02/21 13:46:10;;;;;;;;;;;;;;;;;;;;;
2023/02/21 13:52:48;;;;;;;;;71.75;57.00;;;;;15.42;100.00;100906.16;4908798;28;45440;-82
2023/02/21 13:55:25;;;;;;;;;69.50;56.00;;;;;15.43;100.00;100899.00;4906715;28;44946;-81
2023/02/21 13:57:56;;;;;;;;;69.75;54.75;;;;;15.42;100.00;100900.81;4893131;29;45676;-84
2023/02/21 14:00:28;;;;;;;;;68.25;55.00;;;;;15.40;100.00;100887.41;4912288;28;45365;-83
2023/02/21 14:03:35;;;;;;;;;68.50;54.50;;;;;15.22;100.00;100849.94;4922116;28;47069;-82
2023/02/21 14:06:17;;;;;;;;;66.25;53.75;;;;;15.45;100.00;100879.38;4911511;28;45507;-83
2023/02/21 14:09:03;;;;;;;;;67.50;52.00;;;;;15.41;100.00;100864.16;4905925;29;44891;-83
2023/02/21 14:11:36;;;;;;;;;62.50;52.00;;;;;15.31;100.00;100838.28;4934782;28;45625;-85
2023/02/21 14:14:18;;;;;;;;;65.00;52.25;;;;;15.51;100.00;100856.97;4927807;28;46793;-83
2023/02/21 14:17:25;;;;;;;;;;;;;;;;;;;;;
2023/02/21 14:20:10;;;;;;;;;63.75;49.50;;;;;15.56;100.00;100836.41;4946211;28;67946;-84
2023/02/21 14:23:34;;;;;;;;;;;;;;;;;;;;;
2023/02/21 14:26:30;;;;;;;;;63.25;50.25;;;;;15.79;100.00;100845.28;4974022;28;46012;-82
2023/02/21 14:29:15;;;;;;;;;55.50;45.25;;;;;15.80;100.00;100841.69;4966943;28;45479;-82
2023/02/21 14:32:00;;;;;;;;;60.33;47.33;;;;;15.84;100.00;100833.63;4965841;28;44904;-83
2023/02/21 14:35:13;;;;;;;;;62.75;50.25;;;;;15.76;100.00;100825.63;4971397;28;45371;-82
2023/02/21 14:37:56;;;;;;;;;61.00;48.50;;;;;15.87;100.00;100822.88;4951438;28;46008;-83
2023/02/21 14:40:31;;;;;;;;;61.25;50.00;;;;;15.90;100.00;100830.91;4983566;28;45454;-82
2023/02/21 14:43:06;;;;;;;;;61.75;48.25;;;;;15.79;99.64;100837.22;4993929;28;45434;-82
2023/02/21 14:49:31;;;;;;;;;56.50;44.50;;;;;15.84;100.00;100817.53;5009248;28;45185;-83
2023/02/21 14:52:22;;;;;;;;;59.00;49.33;;;;;15.87;100.00;100822.88;5011663;28;45612;-82
2023/02/21 14:55:10;;;;;;;;;55.33;47.00;;;;;15.87;100.00;100817.50;4988193;28;45557;-83
2023/02/21 14:58:13;;;;;;;;;59.50;45.50;;;;;15.89;99.68;100819.25;5019099;28;45448;-83
2023/02/21 15:01:14;;;;;;;;;55.25;46.00;;;;;15.68;100.00;100781.84;5004802;28;46366;-84
2023/02/21 15:04:21;;;;;;;;;58.75;48.00;;;;;15.90;100.00;100813.00;5024728;28;45387;-82